createdAt,value
2022-11-03T00:09:35.040Z,14.31
2022-11-03T00:20:37.036Z,14.35
2022-11-03T00:31:25.011Z,14.53
2022-11-03T00:42:08.155Z,14.57
2022-11-03T00:53:18.874Z,14.50
2022-11-03T01:04:20.580Z,14.42
2022-11-03T01:15:23.253Z,14.50
2022-11-03T01:26:25.973Z,14.50
2022-11-03T01:37:28.472Z,14.50
2022-11-03T01:48:31.653Z,14.50
2022-11-03T01:59:30.212Z,14.49
2022-11-03T02:10:32.247Z,14.49
2022-11-03T02:21:34.537Z,14.49
2022-11-03T02:32:37.677Z,14.46
2022-11-03T02:43:40.174Z,14.49
2022-11-03T02:54:41.705Z,14.50
2022-11-03T03:05:26.766Z,14.52
2022-11-03T03:16:09.058Z,14.38
2022-11-03T03:27:10.322Z,14.19
2022-11-03T03:37:57.232Z,14.14
2022-11-03T03:48:58.479Z,14.11
2022-11-03T04:00:00.239Z,14.01
2022-11-03T04:11:02.920Z,13.99
2022-11-03T04:22:02.907Z,13.89
2022-11-03T04:33:04.640Z,13.84
2022-11-03T04:44:07.843Z,13.66
2022-11-03T04:55:06.037Z,13.71
2022-11-03T05:06:09.495Z,13.56
2022-11-03T05:17:12.501Z,13.48
2022-11-03T05:28:14.900Z,13.43
2022-11-03T05:39:14.264Z,13.45
2022-11-03T05:50:08.286Z,13.44
2022-11-03T06:01:04.850Z,13.45
2022-11-03T06:11:46.673Z,13.41
2022-11-03T06:22:39.919Z,13.45
2022-11-03T06:33:25.889Z,13.38
2022-11-03T06:44:09.153Z,13.56
2022-11-03T06:55:03.124Z,13.55
2022-11-03T07:05:57.458Z,13.70
2022-11-03T07:16:47.635Z,13.74
2022-11-03T07:27:28.373Z,13.83
2022-11-03T07:38:20.936Z,13.92
2022-11-03T07:49:01.411Z,14.29
2022-11-03T07:59:45.124Z,14.46
2022-11-03T08:10:47.102Z,14.91
2022-11-03T08:21:48.681Z,15.49
2022-11-03T08:32:49.860Z,15.66
2022-11-03T08:43:51.689Z,15.51
2022-11-03T08:54:53.052Z,15.73
2022-11-03T09:05:52.408Z,15.64
2022-11-03T09:16:52.459Z,15.46
2022-11-03T09:27:52.942Z,15.83
2022-11-03T09:38:54.840Z,16.04
2022-11-03T09:49:55.725Z,16.22
2022-11-03T10:00:54.490Z,16.20
2022-11-03T10:11:55.668Z,16.27
2022-11-03T10:22:57.111Z,17.02
2022-11-03T10:33:59.603Z,17.33
2022-11-03T10:45:00.424Z,17.63
2022-11-03T10:55:58.343Z,17.11
2022-11-03T11:06:58.627Z,16.99
2022-11-03T11:17:58.162Z,16.60
2022-11-03T11:28:58.899Z,17.25
2022-11-03T11:39:33.028Z,17.57
2022-11-03T11:50:07.619Z,16.65
2022-11-03T12:00:44.472Z,17.05
2022-11-03T12:11:45.467Z,17.18
2022-11-03T12:22:44.705Z,16.80
2022-11-03T12:33:42.902Z,16.30
2022-11-03T12:44:44.029Z,16.23
2022-11-03T12:55:44.923Z,17.38
2022-11-03T13:06:43.607Z,17.29
2022-11-03T13:17:59.708Z,16.44
2022-11-03T13:28:34.352Z,16.18
2022-11-03T13:39:19.509Z,15.88
2022-11-03T13:50:18.745Z,15.85
2022-11-03T14:01:11.740Z,15.81
2022-11-03T14:11:51.425Z,15.88
2022-11-03T14:22:38.728Z,15.88
2022-11-03T14:33:33.245Z,15.86
2022-11-03T14:44:21.421Z,15.68
2022-11-03T14:55:11.333Z,15.70
2022-11-03T15:06:05.560Z,15.51
2022-11-03T15:17:00.920Z,15.31
2022-11-03T15:27:56.270Z,15.12
2022-11-03T15:38:52.810Z,15.20
2022-11-03T15:49:41.990Z,15.08
2022-11-03T16:00:27.640Z,15.02
2022-11-03T16:11:09.920Z,14.71
2022-11-03T16:22:04.289Z,14.47
2022-11-03T16:32:53.547Z,14.64
2022-11-03T16:43:44.885Z,14.60
2022-11-03T16:54:39.216Z,14.59
2022-11-03T17:05:39.538Z,14.49
2022-11-03T17:16:38.866Z,14.35
2022-11-03T17:27:39.362Z,13.89
2022-11-03T17:38:39.366Z,13.96
2022-11-03T17:49:37.897Z,13.91
2022-11-03T18:00:38.447Z,13.58
2022-11-03T18:11:31.462Z,13.27
2022-11-03T18:22:31.803Z,13.04
2022-11-03T18:33:29.384Z,12.97
2022-11-03T18:44:25.370Z,12.71
2022-11-03T18:55:22.158Z,12.60
2022-11-03T19:06:19.632Z,12.70
2022-11-03T19:17:23.956Z,12.74
2022-11-03T19:28:24.336Z,12.77
2022-11-03T19:39:25.018Z,12.53
2022-11-03T19:50:26.280Z,12.30
2022-11-03T20:01:18.769Z,11.76
2022-11-03T20:11:55.745Z,11.94
2022-11-03T20:22:56.092Z,11.90
2022-11-03T20:33:33.087Z,11.90
2022-11-03T20:44:33.393Z,11.86
2022-11-03T20:55:34.453Z,11.90
2022-11-03T21:06:41.517Z,11.71
2022-11-03T21:17:19.820Z,11.71
2022-11-03T21:28:19.617Z,11.54
2022-11-03T21:39:20.154Z,11.64
2022-11-03T21:49:58.124Z,11.39
2022-11-03T22:00:55.113Z,11.31
2022-11-03T22:11:40.857Z,11.18
2022-11-03T22:22:41.943Z,11.20
2022-11-03T22:33:37.953Z,11.17
2022-11-03T22:44:38.731Z,11.03
2022-11-03T22:55:40.592Z,11.06
2022-11-03T23:06:44.251Z,11.06
2022-11-03T23:17:47.692Z,11.05
2022-11-03T23:28:50.175Z,10.80
2022-11-03T23:39:51.975Z,10.75
2022-11-03T23:50:35.329Z,10.74
